Terminal Aerodrome Forecast
Issued by NWS

Home | Current Version | Previous Version | Text Only | Print | Product List | Glossary On
Versions: 1 2 3 4 5 6 7 8 9 10 11 12 13 14 15 16 17 18 19 20
000
FTUS43 KDLH 161734
TAFHIB
TAF
KHIB 161734Z 1618/1718 VRB03KT 5SM BR SKC
      TEMPO 1618/1620 3SM BR
     FM162000 VRB03KT 5SM BR SCT001
     FM170400 00000KT 1SM BR SCT200
     FM170600 00000KT 1/2SM FZFG OVC001
      TEMPO 1706/1710 1/4SM FZFG VV001=

USA.gov is the U.S. government's official web portal to all federal, state and local government web resources and services.